Das Wetter fuer Meerbusch Buederich
Wetterdaten: aktuell Mittwoch, 10.01.2024 09:40
Datum Zeit Temp.Mast Feuchte Mast Sonnenstand Luftdruck Regen Wind Richtung Richtung Sonnenschein Taupunkt Windchill Windböen
10.01.2024 09:40 -5,2 °C 73 % 0 cb 1022,0 hPa 0,0 mm 2,4 km/h SO 145 ° 0 min -9,3 °C -5,2 °C 2,4 km/h
10.01.2024 09:35 -5,4 °C 74 % 0 cb 1022,0 hPa 0,0 mm 1,2 km/h SO 140 ° 0 min -9,3 °C -5,4 °C 1,2 km/h
10.01.2024 09:30 -5,6 °C 74 % 0 cb 1022,0 hPa 0,0 mm 3,0 km/h SO 125 ° 0 min -9,5 °C -5,6 °C 3,0 km/h
10.01.2024 09:25 -5,8 °C 74 % 0 cb 1022,0 hPa 0,0 mm 2,4 km/h O-SO 115 ° 0 min -9,7 °C -5,8 °C 2,4 km/h
10.01.2024 09:20 -5,8 °C 74 % 0 cb 1022,0 hPa 0,0 mm 3,6 km/h SO 145 ° 0 min -9,7 °C -5,8 °C 3,6 km/h
10.01.2024 09:15 -5,9 °C 74 % 0 cb 1022,0 hPa 0,0 mm 0,6 km/h S 170 ° 0 min -9,8 °C -5,9 °C 0,6 km/h
10.01.2024 09:10 -5,9 °C 74 % 0 cb 1022,0 hPa 0,0 mm 3,0 km/h W-SW 245 ° 0 min -9,8 °C -5,9 °C 3,0 km/h
10.01.2024 09:05 -5,9 °C 74 % 0 cb 1022,0 hPa 0,0 mm 2,4 km/h S-SO 150 ° 0 min -9,8 °C -5,9 °C 2,4 km/h
10.01.2024 09:00 -5,9 °C 74 % 0 cb 1022,0 hPa 0,0 mm 0,6 km/h S-SO 155 ° 0 min -9,8 °C -5,9 °C 0,6 km/h
10.01.2024 08:55 -5,9 °C 74 % 0 cb 1022,0 hPa 0,0 mm 1,2 km/h S-SO 150 ° 0 min -9,8 °C -5,9 °C 1,2 km/h
10.01.2024 08:50 -5,9 °C 74 % 0 cb 1022,0 hPa 0,0 mm 3,6 km/h O 80 ° 0 min -9,8 °C -5,9 °C 3,6 km/h
10.01.2024 08:45 -6,0 °C 74 % 0 cb 1022,0 hPa 0,0 mm 1,2 km/h SO 140 ° 0 min -9,9 °C -6,0 °C 1,2 km/h
10.01.2024 08:40 -6,0 °C 74 % 0 cb 1022,0 hPa 0,0 mm 3,0 km/h SO 125 ° 0 min -9,9 °C -6,0 °C 3,0 km/h
10.01.2024 08:35 -6,0 °C 75 % 0 cb 1022,0 hPa 0,0 mm 4,2 km/h NO 35 ° 0 min -9,7 °C -6,0 °C 4,2 km/h
10.01.2024 08:30 -6,1 °C 75 % 0 cb 1022,0 hPa 0,0 mm 3,0 km/h SO 145 ° 0 min -9,8 °C -6,1 °C 3,0 km/h
10.01.2024 08:25 -6,1 °C 75 % 0 cb 1022,0 hPa 0,0 mm 2,4 km/h S-SO 150 ° 0 min -9,8 °C -6,1 °C 2,4 km/h
10.01.2024 08:20 -6,1 °C 75 % 0 cb 1022,0 hPa 0,0 mm 3,6 km/h W-NW 290 ° 0 min -9,8 °C -6,1 °C 3,6 km/h
10.01.2024 08:15 -6,1 °C 75 % 0 cb 1022,0 hPa 0,0 mm 2,4 km/h SO 140 ° 0 min -9,8 °C -6,1 °C 2,4 km/h
10.01.2024 08:10 -6,2 °C 75 % 0 cb 1022,0 hPa 0,0 mm 0,6 km/h S 180 ° 0 min -9,9 °C -6,2 °C 0,6 km/h
10.01.2024 08:05 -6,2 °C 75 % 0 cb 1022,0 hPa 0,0 mm 0,0 km/h NW 305 ° 0 min -9,9 °C -6,2 °C 0,0 km/h
10.01.2024 08:00 -6,2 °C 74 % 0 cb 1022,0 hPa 0,0 mm 0,0 km/h SW 220 ° 0 min -10,1 °C -6,2 °C 0,0 km/h
10.01.2024 07:55 -6,2 °C 74 % 0 cb 1022,0 hPa 0,0 mm 0,0 km/h SO 125 ° 0 min -10,1 °C -6,2 °C 0,0 km/h
10.01.2024 07:53 -6,2 °C 74 % 0 cb 1028,2 hPa 0,0 mm 0,0 km/h SO 125 ° 0 min -10,1 °C -6,2 °C 0,0 km/h
10.01.2024 07:53 -6,2 °C 74 % 0 cb 1028,2 hPa 0,0 mm 0,0 km/h SO 125 ° 0 min -10,1 °C -6,2 °C 0,0 km/h
10.01.2024 07:48 -6,2 °C 74 % 0 cb 1028,2 hPa 0,0 mm 0,0 km/h W-SW 245 ° 0 min -10,1 °C -6,2 °C 0,0 km/h
10.01.2024 07:45 -6,1 °C 74 % 0 cb 1022,0 hPa 0,0 mm 0,0 km/h N-NW 340 ° 0 min -10,0 °C -6,1 °C 0,0 km/h
10.01.2024 07:40 -6,1 °C 74 % 0 cb 1021,0 hPa 0,0 mm 0,0 km/h S 175 ° 0 min -10,0 °C -6,1 °C 0,0 km/h
10.01.2024 07:35 -6,1 °C 74 % 0 cb 1021,0 hPa 0,0 mm 7,9 km/h S-SW 200 ° 0 min -10,0 °C -9,9 °C 7,9 km/h
10.01.2024 07:30 -6,1 °C 74 % 0 cb 1021,0 hPa 0,0 mm 7,9 km/h SO 125 ° 0 min -10,0 °C -9,9 °C 7,9 km/h
10.01.2024 07:25 -6,1 °C 74 % 0 cb 1022,0 hPa 0,0 mm 0,0 km/h N-NO 25 ° 0 min -10,0 °C -6,1 °C 0,0 km/h
10.01.2024 07:20 -6,1 °C 74 % 0 cb 1022,0 hPa 0,0 mm 0,6 km/h O-SO 105 ° 0 min -10,0 °C -6,1 °C 0,6 km/h
10.01.2024 07:15 -6,0 °C 74 % 0 cb 1022,0 hPa 0,0 mm 1,8 km/h S-SO 160 ° 0 min -9,9 °C -6,0 °C 1,8 km/h
10.01.2024 07:10 -6,1 °C 74 % 0 cb 1022,0 hPa 0,0 mm 0,6 km/h S 180 ° 0 min -10,0 °C -6,1 °C 0,6 km/h
10.01.2024 07:05 -6,1 °C 74 % 0 cb 1022,0 hPa 0,0 mm 3,0 km/h N 5 ° 0 min -10,0 °C -6,1 °C 3,0 km/h
10.01.2024 07:00 -6,1 °C 74 % 0 cb 1022,0 hPa 0,0 mm 0,6 km/h N 0 ° 0 min -10,0 °C -6,1 °C 0,6 km/h
10.01.2024 06:55 -6,1 °C 74 % 0 cb 1022,0 hPa 0,0 mm 0,0 km/h S-SO 150 ° 0 min -10,0 °C -6,1 °C 0,0 km/h
10.01.2024 06:50 -6,1 °C 74 % 0 cb 1022,0 hPa 0,0 mm 6,1 km/h O 80 ° 0 min -10,0 °C -9,1 °C 6,1 km/h
10.01.2024 06:45 -6,1 °C 74 % 0 cb 1022,0 hPa 0,0 mm 0,6 km/h O-SO 110 ° 0 min -10,0 °C -6,1 °C 0,6 km/h
10.01.2024 06:40 -6,1 °C 74 % 0 cb 1022,0 hPa 0,0 mm 1,2 km/h NO 45 ° 0 min -10,0 °C -6,1 °C 1,2 km/h
10.01.2024 06:35 -6,1 °C 74 % 0 cb 1022,0 hPa 0,0 mm 1,2 km/h O 95 ° 0 min -10,0 °C -6,1 °C 1,2 km/h
10.01.2024 06:30 -6,1 °C 74 % 0 cb 1022,0 hPa 0,0 mm 3,6 km/h SO 135 ° 0 min -10,0 °C -6,1 °C 3,6 km/h
10.01.2024 06:25 -6,1 °C 74 % 0 cb 1022,0 hPa 0,0 mm 3,0 km/h S-SW 200 ° 0 min -10,0 °C -6,1 °C 3,0 km/h
10.01.2024 06:20 -6,1 °C 74 % 0 cb 1022,0 hPa 0,0 mm 1,2 km/h NW 310 ° 0 min -10,0 °C -6,1 °C 1,2 km/h
10.01.2024 06:15 -6,1 °C 74 % 0 cb 1022,0 hPa 0,0 mm 1,2 km/h W 275 ° 0 min -10,0 °C -6,1 °C 1,2 km/h
10.01.2024 06:10 -6,1 °C 73 % 0 cb 1022,0 hPa 0,0 mm 0,0 km/h S 185 ° 0 min -10,1 °C -6,1 °C 0,0 km/h
10.01.2024 06:05 -6,1 °C 73 % 0 cb 1022,0 hPa 0,0 mm 1,2 km/h W-NW 290 ° 0 min -10,1 °C -6,1 °C 1,2 km/h
10.01.2024 06:00 -6,1 °C 73 % 0 cb 1022,0 hPa 0,0 mm 0,6 km/h W 265 ° 0 min -10,1 °C -6,1 °C 0,6 km/h
10.01.2024 05:55 -6,2 °C 74 % 0 cb 1022,0 hPa 0,0 mm 2,4 km/h O-SO 110 ° 0 min -10,1 °C -6,2 °C 2,4 km/h
10.01.2024 05:50 -6,3 °C 74 % 0 cb 1022,0 hPa 0,0 mm 5,4 km/h W-SW 250 ° 0 min -10,2 °C -9,0 °C 5,4 km/h
10.01.2024 05:45 -6,3 °C 74 % 0 cb 1022,0 hPa 0,0 mm 1,8 km/h SO 130 ° 0 min -10,2 °C -6,3 °C 1,8 km/h
10.01.2024 05:40 -6,4 °C 74 % 0 cb 1022,0 hPa 0,0 mm 1,2 km/h O 90 ° 0 min -10,2 °C -6,4 °C 1,2 km/h
10.01.2024 05:35 -6,3 °C 74 % 0 cb 1022,0 hPa 0,0 mm 0,0 km/h S 185 ° 0 min -10,2 °C -6,3 °C 0,0 km/h
10.01.2024 05:30 -6,2 °C 73 % 0 cb 1022,0 hPa 0,0 mm 0,0 km/h N 350 ° 0 min -10,2 °C -6,2 °C 0,0 km/h
10.01.2024 05:25 -6,1 °C 72 % 0 cb 1022,0 hPa 0,0 mm 0,0 km/h NW 310 ° 0 min -10,3 °C -6,1 °C 0,0 km/h
10.01.2024 05:20 -6,0 °C 72 % 0 cb 1022,0 hPa 0,0 mm 0,0 km/h O-SO 110 ° 0 min -10,2 °C -6,0 °C 0,0 km/h
10.01.2024 05:15 -6,1 °C 72 % 0 cb 1022,0 hPa 0,0 mm 1,2 km/h O 100 ° 0 min -10,3 °C -6,1 °C 1,2 km/h
10.01.2024 05:10 -5,9 °C 72 % 0 cb 1022,0 hPa 0,0 mm 0,6 km/h NO 45 ° 0 min -10,1 °C -5,9 °C 0,6 km/h
10.01.2024 05:05 -5,9 °C 72 % 0 cb 1022,0 hPa 0,0 mm 2,4 km/h S-SO 150 ° 0 min -10,1 °C -5,9 °C 2,4 km/h
10.01.2024 05:00 -5,9 °C 72 % 0 cb 1022,0 hPa 0,0 mm 0,0 km/h W-SW 250 ° 0 min -10,1 °C -5,9 °C 0,0 km/h
10.01.2024 04:55 -5,7 °C 72 % 0 cb 1022,0 hPa 0,0 mm 0,0 km/h W 280 ° 0 min -9,9 °C -5,7 °C 0,0 km/h
10.01.2024 04:50 -5,6 °C 71 % 0 cb 1022,0 hPa 0,0 mm 0,0 km/h W-NW 290 ° 0 min -10,0 °C -5,6 °C 0,0 km/h
10.01.2024 04:45 -5,6 °C 71 % 0 cb 1022,0 hPa 0,0 mm 1,8 km/h O 80 ° 0 min -10,0 °C -5,6 °C 1,8 km/h
10.01.2024 04:40 -5,6 °C 71 % 0 cb 1022,0 hPa 0,0 mm 1,8 km/h O-SO 105 ° 0 min -10,0 °C -5,6 °C 1,8 km/h
10.01.2024 04:35 -5,5 °C 71 % 0 cb 1022,0 hPa 0,0 mm 4,8 km/h S-SO 155 ° 0 min -9,9 °C -7,7 °C 4,8 km/h
10.01.2024 04:30 -5,5 °C 71 % 0 cb 1022,0 hPa 0,0 mm 0,6 km/h S 170 ° 0 min -9,9 °C -5,5 °C 0,6 km/h
10.01.2024 04:25 -5,4 °C 71 % 0 cb 1023,0 hPa 0,0 mm 4,8 km/h S-SO 155 ° 0 min -9,8 °C -7,6 °C 4,8 km/h
10.01.2024 04:20 -5,4 °C 71 % 0 cb 1023,0 hPa 0,0 mm 4,8 km/h O-SO 120 ° 0 min -9,8 °C -7,6 °C 4,8 km/h
10.01.2024 04:15 -5,3 °C 71 % 0 cb 1023,0 hPa 0,0 mm 0,0 km/h O-SO 115 ° 0 min -9,7 °C -5,3 °C 0,0 km/h
10.01.2024 04:10 -5,3 °C 71 % 0 cb 1023,0 hPa 0,0 mm 3,0 km/h SW 225 ° 0 min -9,7 °C -5,3 °C 3,0 km/h
10.01.2024 04:05 -5,5 °C 72 % 0 cb 1023,0 hPa 0,0 mm 4,2 km/h SO 135 ° 0 min -9,7 °C -5,5 °C 4,2 km/h
10.01.2024 04:00 -5,8 °C 73 % 0 cb 1023,0 hPa 0,0 mm 1,2 km/h SO 145 ° 0 min -9,8 °C -5,8 °C 1,2 km/h
10.01.2024 03:55 -6,1 °C 74 % 0 cb 1023,0 hPa 0,0 mm 2,4 km/h S 170 ° 0 min -10,0 °C -6,1 °C 2,4 km/h
10.01.2024 03:50 -6,1 °C 74 % 0 cb 1023,0 hPa 0,0 mm 0,0 km/h N-NW 340 ° 0 min -10,0 °C -6,1 °C 0,0 km/h
10.01.2024 03:45 -6,1 °C 74 % 0 cb 1023,0 hPa 0,0 mm 0,0 km/h S-SW 200 ° 0 min -10,0 °C -6,1 °C 0,0 km/h
10.01.2024 03:40 -6,1 °C 74 % 0 cb 1023,0 hPa 0,0 mm 0,0 km/h SW 215 ° 0 min -10,0 °C -6,1 °C 0,0 km/h
10.01.2024 03:35 -6,0 °C 73 % 0 cb 1023,0 hPa 0,0 mm 0,0 km/h S 185 ° 0 min -10,0 °C -6,0 °C 0,0 km/h
10.01.2024 03:30 -5,9 °C 73 % 0 cb 1023,0 hPa 0,0 mm 0,0 km/h W 265 ° 0 min -9,9 °C -5,9 °C 0,0 km/h
10.01.2024 03:25 -5,9 °C 73 % 0 cb 1023,0 hPa 0,0 mm 0,0 km/h NW 320 ° 0 min -9,9 °C -5,9 °C 0,0 km/h
10.01.2024 03:20 -5,8 °C 73 % 0 cb 1023,0 hPa 0,0 mm 0,0 km/h W 270 ° 0 min -9,8 °C -5,8 °C 0,0 km/h
10.01.2024 03:15 -5,7 °C 73 % 0 cb 1023,0 hPa 0,0 mm 0,0 km/h W-SW 250 ° 0 min -9,7 °C -5,7 °C 0,0 km/h
10.01.2024 03:10 -5,7 °C 73 % 0 cb 1022,0 hPa 0,0 mm 0,0 km/h SO 125 ° 0 min -9,7 °C -5,7 °C 0,0 km/h
10.01.2024 03:05 -5,7 °C 73 % 0 cb 1022,0 hPa 0,0 mm 0,0 km/h O-SO 115 ° 0 min -9,7 °C -5,7 °C 0,0 km/h
10.01.2024 03:00 -5,7 °C 73 % 0 cb 1022,0 hPa 0,0 mm 0,0 km/h NO 55 ° 0 min -9,7 °C -5,7 °C 0,0 km/h
10.01.2024 02:55 -5,6 °C 73 % 0 cb 1023,0 hPa 0,0 mm 0,0 km/h SO 130 ° 0 min -9,6 °C -5,6 °C 0,0 km/h
10.01.2024 02:50 -5,6 °C 73 % 0 cb 1023,0 hPa 0,0 mm 0,0 km/h SW 225 ° 0 min -9,6 °C -5,6 °C 0,0 km/h
10.01.2024 02:45 -5,5 °C 72 % 0 cb 1023,0 hPa 0,0 mm 0,0 km/h S 180 ° 0 min -9,7 °C -5,5 °C 0,0 km/h
10.01.2024 02:40 -5,5 °C 72 % 0 cb 1023,0 hPa 0,0 mm 1,8 km/h W-SW 255 ° 0 min -9,7 °C -5,5 °C 1,8 km/h
10.01.2024 02:35 -5,4 °C 72 % 0 cb 1023,0 hPa 0,0 mm 1,2 km/h O 100 ° 0 min -9,6 °C -5,4 °C 1,2 km/h
10.01.2024 02:30 -5,4 °C 72 % 0 cb 1023,0 hPa 0,0 mm 1,8 km/h O-SO 105 ° 0 min -9,6 °C -5,4 °C 1,8 km/h
10.01.2024 02:25 -5,4 °C 73 % 0 cb 1023,0 hPa 0,0 mm 2,4 km/h O-SO 120 ° 0 min -9,5 °C -5,4 °C 2,4 km/h
10.01.2024 02:20 -5,3 °C 72 % 0 cb 1023,0 hPa 0,0 mm 1,2 km/h S 180 ° 0 min -9,5 °C -5,3 °C 1,2 km/h
10.01.2024 02:15 -5,3 °C 72 % 0 cb 1023,0 hPa 0,0 mm 3,6 km/h SO 145 ° 0 min -9,5 °C -5,3 °C 3,6 km/h
10.01.2024 02:10 -5,3 °C 73 % 0 cb 1023,0 hPa 0,0 mm 3,6 km/h S-SO 155 ° 0 min -9,4 °C -5,3 °C 3,6 km/h
10.01.2024 02:05 -5,3 °C 72 % 0 cb 1023,0 hPa 0,0 mm 6,7 km/h SO 140 ° 0 min -9,5 °C -8,4 °C 6,7 km/h
10.01.2024 02:00 -5,3 °C 73 % 0 cb 1023,0 hPa 0,0 mm 3,0 km/h S 185 ° 0 min -9,4 °C -5,3 °C 3,0 km/h
10.01.2024 01:55 -5,3 °C 73 % 0 cb 1023,0 hPa 0,0 mm 5,4 km/h O-SO 115 ° 0 min -9,4 °C -7,8 °C 5,4 km/h
10.01.2024 01:50 -5,3 °C 72 % 0 cb 1023,0 hPa 0,0 mm 3,6 km/h SO 135 ° 0 min -9,5 °C -5,3 °C 3,6 km/h
10.01.2024 01:45 -5,3 °C 73 % 0 cb 1023,0 hPa 0,0 mm 3,6 km/h O-SO 120 ° 0 min -9,4 °C -5,3 °C 3,6 km/h
10.01.2024 01:40 -5,3 °C 73 % 0 cb 1024,0 hPa 0,0 mm 5,4 km/h S 170 ° 0 min -9,4 °C -7,8 °C 5,4 km/h
10.01.2024 01:35 -5,3 °C 73 % 0 cb 1024,0 hPa 0,0 mm 3,0 km/h O-SO 105 ° 0 min -9,4 °C -5,3 °C 3,0 km/h
10.01.2024 01:30 -5,2 °C 72 % 0 cb 1024,0 hPa 0,0 mm 4,2 km/h S 170 ° 0 min -9,4 °C -5,2 °C 4,2 km/h
10.01.2024 01:25 -5,2 °C 72 % 0 cb 1024,0 hPa 0,0 mm 3,6 km/h O-SO 120 ° 0 min -9,4 °C -5,2 °C 3,6 km/h
10.01.2024 01:20 -5,1 °C 72 % 0 cb 1024,0 hPa 0,0 mm 2,4 km/h NO 45 ° 0 min -9,3 °C -5,1 °C 2,4 km/h
10.01.2024 01:15 -5,2 °C 72 % 0 cb 1024,0 hPa 0,0 mm 3,0 km/h S-SO 155 ° 0 min -9,4 °C -5,2 °C 3,0 km/h
10.01.2024 01:10 -5,2 °C 72 % 0 cb 1023,0 hPa 0,0 mm 3,6 km/h O-SO 110 ° 0 min -9,4 °C -5,2 °C 3,6 km/h
10.01.2024 01:05 -5,2 °C 72 % 0 cb 1023,0 hPa 0,0 mm 2,4 km/h SO 125 ° 0 min -9,4 °C -5,2 °C 2,4 km/h
10.01.2024 01:00 -5,1 °C 72 % 0 cb 1023,0 hPa 0,0 mm 4,8 km/h O-SO 110 ° 0 min -9,3 °C -7,3 °C 4,8 km/h
10.01.2024 00:55 -5,1 °C 72 % 0 cb 1024,0 hPa 0,0 mm 6,7 km/h O 85 ° 0 min -9,3 °C -8,2 °C 6,7 km/h
10.01.2024 00:50 -5,1 °C 72 % 0 cb 1024,0 hPa 0,0 mm 4,2 km/h S 175 ° 0 min -9,3 °C -5,1 °C 4,2 km/h
10.01.2024 00:45 -5,0 °C 72 % 0 cb 1024,0 hPa 0,0 mm 6,1 km/h O 90 ° 0 min -9,2 °C -7,8 °C 6,1 km/h
10.01.2024 00:40 -5,0 °C 71 % 0 cb 1024,0 hPa 0,0 mm 3,6 km/h O-SO 120 ° 0 min -9,4 °C -5,0 °C 3,6 km/h
10.01.2024 00:35 -4,9 °C 71 % 0 cb 1024,0 hPa 0,0 mm 4,8 km/h S 180 ° 0 min -9,3 °C -7,0 °C 4,8 km/h
10.01.2024 00:30 -4,9 °C 71 % 0 cb 1024,0 hPa 0,0 mm 5,4 km/h O-SO 120 ° 0 min -9,3 °C -7,4 °C 5,4 km/h
10.01.2024 00:25 -4,9 °C 71 % 0 cb 1024,0 hPa 0,0 mm 8,5 km/h O-SO 105 ° 0 min -9,3 °C -8,7 °C 8,5 km/h
10.01.2024 00:20 -4,8 °C 71 % 0 cb 1024,0 hPa 0,0 mm 8,5 km/h O-SO 105 ° 0 min -9,2 °C -8,6 °C 8,5 km/h
10.01.2024 00:15 -4,8 °C 71 % 0 cb 1024,0 hPa 0,0 mm 1,8 km/h O-SO 110 ° 0 min -9,2 °C -4,8 °C 1,8 km/h
10.01.2024 00:10 -4,7 °C 71 % 0 cb 1024,0 hPa 0,0 mm 3,0 km/h SW 215 ° 0 min -9,1 °C -4,7 °C 3,0 km/h
10.01.2024 00:05 -4,6 °C 70 % 0 cb 1024,0 hPa 0,0 mm 4,8 km/h O-SO 110 ° 0 min -9,2 °C -6,7 °C 4,8 km/h
10.01.2024 00:00 -4,6 °C 70 % 0 cb 1024,0 hPa 0,0 mm 3,6 km/h O 100 ° 0 min -9,2 °C -4,6 °C 3,6 km/h
09.01.2024 23:55 -4,6 °C 70 % 0 cb 1024,0 hPa 0,0 mm 8,5 km/h SO 135 ° 0 min -9,2 °C -8,3 °C 8,5 km/h
09.01.2024 23:50 -4,5 °C 70 % 0 cb 1024,0 hPa 0,0 mm 7,9 km/h SO 135 ° 0 min -9,1 °C -8,0 °C 7,9 km/h
09.01.2024 23:45 -4,5 °C 70 % 0 cb 1024,0 hPa 0,0 mm 11,5 km/h NO 45 ° 0 min -9,1 °C -9,1 °C 11,5 km/h
09.01.2024 23:40 -4,5 °C 70 % 0 cb 1023,0 hPa 0,0 mm 8,5 km/h O-SO 110 ° 0 min -9,1 °C -8,2 °C 8,5 km/h
09.01.2024 23:35 -4,5 °C 70 % 0 cb 1023,0 hPa 0,0 mm 6,7 km/h SW 220 ° 0 min -9,1 °C -7,5 °C 6,7 km/h
09.01.2024 23:30 -4,4 °C 70 % 0 cb 1023,0 hPa 0,0 mm 6,1 km/h NO 55 ° 0 min -9,0 °C -7,1 °C 6,1 km/h
09.01.2024 23:25 -4,4 °C 70 % 0 cb 1024,0 hPa 0,0 mm 4,2 km/h SW 230 ° 0 min -9,0 °C -4,4 °C 4,2 km/h
09.01.2024 23:20 -4,4 °C 70 % 0 cb 1024,0 hPa 0,0 mm 4,8 km/h N 355 ° 0 min -9,0 °C -6,5 °C 4,8 km/h
09.01.2024 23:15 -4,4 °C 70 % 0 cb 1024,0 hPa 0,0 mm 7,9 km/h W 260 ° 0 min -9,0 °C -7,9 °C 7,9 km/h
09.01.2024 23:10 -4,4 °C 70 % 0 cb 1024,0 hPa 0,0 mm 5,4 km/h SO 130 ° 0 min -9,0 °C -6,8 °C 5,4 km/h
09.01.2024 23:05 -4,4 °C 70 % 0 cb 1024,0 hPa 0,0 mm 3,0 km/h O-NO 60 ° 0 min -9,0 °C -4,4 °C 3,0 km/h
09.01.2024 23:00 -4,4 °C 70 % 0 cb 1024,0 hPa 0,0 mm 4,8 km/h S 190 ° 0 min -9,0 °C -6,5 °C 4,8 km/h
09.01.2024 22:55 -4,3 °C 70 % 0 cb 1024,0 hPa 0,0 mm 5,4 km/h S-SO 160 ° 0 min -8,9 °C -6,7 °C 5,4 km/h
09.01.2024 22:50 -4,3 °C 70 % 0 cb 1024,0 hPa 0,0 mm 3,0 km/h O-SO 115 ° 0 min -8,9 °C -4,3 °C 3,0 km/h
09.01.2024 22:45 -4,2 °C 69 % 0 cb 1024,0 hPa 0,0 mm 3,0 km/h W-SW 245 ° 0 min -9,0 °C -4,2 °C 3,0 km/h
09.01.2024 22:40 -4,2 °C 69 % 0 cb 1024,0 hPa 0,0 mm 2,4 km/h S-SO 155 ° 0 min -9,0 °C -4,2 °C 2,4 km/h
09.01.2024 22:35 -4,1 °C 69 % 0 cb 1024,0 hPa 0,0 mm 3,0 km/h NW 320 ° 0 min -8,9 °C -4,1 °C 3,0 km/h
09.01.2024 22:30 -4,1 °C 68 % 0 cb 1024,0 hPa 0,0 mm 6,7 km/h SW 215 ° 0 min -9,1 °C -7,0 °C 6,7 km/h
09.01.2024 22:25 -4,0 °C 68 % 0 cb 1024,0 hPa 0,0 mm 9,1 km/h S 190 ° 0 min -9,0 °C -7,8 °C 9,1 km/h
09.01.2024 22:20 -3,9 °C 68 % 0 cb 1024,0 hPa 0,0 mm 3,0 km/h O-SO 115 ° 0 min -8,9 °C -3,9 °C 3,0 km/h
09.01.2024 22:15 -3,9 °C 68 % 0 cb 1024,0 hPa 0,0 mm 4,8 km/h S 170 ° 0 min -8,9 °C -5,9 °C 4,8 km/h
09.01.2024 22:10 -3,9 °C 68 % 0 cb 1024,0 hPa 0,0 mm 1,2 km/h S 190 ° 0 min -8,9 °C -3,9 °C 1,2 km/h
09.01.2024 22:05 -3,8 °C 68 % 0 cb 1024,0 hPa 0,0 mm 4,8 km/h O-NO 65 ° 0 min -8,8 °C -5,8 °C 4,8 km/h
09.01.2024 22:00 -3,8 °C 68 % 0 cb 1024,0 hPa 0,0 mm 3,6 km/h SO 145 ° 0 min -8,8 °C -3,8 °C 3,6 km/h
09.01.2024 21:55 -3,7 °C 67 % 0 cb 1024,0 hPa 0,0 mm 3,6 km/h S-SO 160 ° 0 min -8,9 °C -3,7 °C 3,6 km/h
09.01.2024 21:50 -3,7 °C 67 % 0 cb 1024,0 hPa 0,0 mm 1,8 km/h W 275 ° 0 min -8,9 °C -3,7 °C 1,8 km/h
09.01.2024 21:45 -3,7 °C 67 % 0 cb 1024,0 hPa 0,0 mm 3,6 km/h S-SW 200 ° 0 min -8,9 °C -3,7 °C 3,6 km/h
09.01.2024 21:40 -3,6 °C 67 % 0 cb 1024,0 hPa 0,0 mm 3,6 km/h O-SO 120 ° 0 min -8,8 °C -3,6 °C 3,6 km/h
09.01.2024 21:35 -3,5 °C 66 % 0 cb 1024,0 hPa 0,0 mm 2,4 km/h W-NW 290 ° 0 min -8,9 °C -3,5 °C 2,4 km/h
09.01.2024 21:30 -3,5 °C 66 % 0 cb 1024,0 hPa 0,0 mm 9,1 km/h S-SO 155 ° 0 min -8,9 °C -7,2 °C 9,1 km/h
09.01.2024 21:25 -3,4 °C 66 % 0 cb 1024,0 hPa 0,0 mm 4,2 km/h S-SO 155 ° 0 min -8,8 °C -3,4 °C 4,2 km/h
09.01.2024 21:20 -3,4 °C 65 % 0 cb 1024,0 hPa 0,0 mm 3,0 km/h O-SO 120 ° 0 min -9,0 °C -3,4 °C 3,0 km/h
09.01.2024 21:15 -3,3 °C 65 % 0 cb 1024,0 hPa 0,0 mm 5,4 km/h SO 125 ° 0 min -8,9 °C -5,5 °C 5,4 km/h
09.01.2024 21:10 -3,2 °C 65 % 0 cb 1024,0 hPa 0,0 mm 2,4 km/h SW 220 ° 0 min -8,8 °C -3,2 °C 2,4 km/h
09.01.2024 21:05 -3,1 °C 64 % 0 cb 1024,0 hPa 0,0 mm 4,8 km/h O-NO 65 ° 0 min -8,9 °C -5,0 °C 4,8 km/h
09.01.2024 21:00 -3,0 °C 64 % 0 cb 1024,0 hPa 0,0 mm 8,5 km/h O 80 ° 0 min -8,8 °C -6,4 °C 8,5 km/h
09.01.2024 20:55 -3,0 °C 63 % 0 cb 1024,0 hPa 0,0 mm 6,7 km/h O-NO 75 ° 0 min -9,0 °C -5,8 °C 6,7 km/h
09.01.2024 20:50 -2,9 °C 63 % 0 cb 1024,0 hPa 0,0 mm 8,5 km/h SO 130 ° 0 min -8,9 °C -6,3 °C 8,5 km/h
09.01.2024 20:45 -3,0 °C 63 % 0 cb 1024,0 hPa 0,0 mm 7,9 km/h SW 230 ° 0 min -9,0 °C -6,2 °C 7,9 km/h
09.01.2024 20:40 -3,0 °C 63 % 0 cb 1024,0 hPa 0,0 mm 8,5 km/h SW 215 ° 0 min -9,0 °C -6,4 °C 8,5 km/h
09.01.2024 20:35 -2,9 °C 62 % 0 cb 1024,0 hPa 0,0 mm 6,7 km/h O 95 ° 0 min -9,1 °C -5,7 °C 6,7 km/h
09.01.2024 20:30 -2,8 °C 61 % 0 cb 1024,0 hPa 0,0 mm 6,1 km/h SO 140 ° 0 min -9,2 °C -5,3 °C 6,1 km/h
09.01.2024 20:25 -2,7 °C 61 % 0 cb 1024,0 hPa 0,0 mm 1,2 km/h S-SO 165 ° 0 min -9,2 °C -2,7 °C 1,2 km/h
09.01.2024 20:20 -2,7 °C 61 % 0 cb 1024,0 hPa 0,0 mm 6,7 km/h O-SO 120 ° 0 min -9,2 °C -5,4 °C 6,7 km/h
09.01.2024 20:15 -2,6 °C 60 % 0 cb 1024,0 hPa 0,0 mm 15,1 km/h SW 225 ° 0 min -9,3 °C -7,6 °C 15,1 km/h
09.01.2024 20:10 -2,7 °C 61 % 0 cb 1024,0 hPa 0,0 mm 7,9 km/h S 175 ° 0 min -9,2 °C -5,9 °C 7,9 km/h
09.01.2024 20:05 -2,7 °C 61 % 0 cb 1024,0 hPa 0,0 mm 6,1 km/h S 180 ° 0 min -9,2 °C -5,2 °C 6,1 km/h
09.01.2024 20:00 -2,6 °C 60 % 0 cb 1024,0 hPa 0,0 mm 5,4 km/h O 95 ° 0 min -9,3 °C -4,7 °C 5,4 km/h
09.01.2024 19:55 -2,5 °C 60 % 0 cb 1024,0 hPa 0,0 mm 8,5 km/h O-SO 105 ° 0 min -9,2 °C -5,8 °C 8,5 km/h
09.01.2024 19:50 -2,5 °C 60 % 0 cb 1024,0 hPa 0,0 mm 14,5 km/h O-SO 110 ° 0 min -9,2 °C -7,4 °C 14,5 km/h
09.01.2024 19:45 -2,5 °C 60 % 0 cb 1024,0 hPa 0,0 mm 6,1 km/h S-SW 195 ° 0 min -9,2 °C -4,9 °C 6,1 km/h
09.01.2024 19:40 -2,5 °C 60 % 0 cb 1024,0 hPa 0,0 mm 10,9 km/h SO 145 ° 0 min -9,2 °C -6,5 °C 10,9 km/h
09.01.2024 19:35 -2,5 °C 60 % 0 cb 1024,0 hPa 0,0 mm 6,1 km/h S-SW 210 ° 0 min -9,2 °C -4,9 °C 6,1 km/h
09.01.2024 19:30 -2,5 °C 60 % 0 cb 1024,0 hPa 0,0 mm 9,1 km/h W-NW 290 ° 0 min -9,2 °C -6,0 °C 9,1 km/h
09.01.2024 19:25 -2,5 °C 59 % 0 cb 1024,0 hPa 0,0 mm 5,4 km/h O-SO 110 ° 0 min -9,4 °C -4,6 °C 5,4 km/h
09.01.2024 19:20 -2,5 °C 59 % 0 cb 1024,0 hPa 0,0 mm 6,1 km/h SO 125 ° 0 min -9,4 °C -4,9 °C 6,1 km/h
09.01.2024 19:15 -2,5 °C 59 % 0 cb 1024,0 hPa 0,0 mm 3,6 km/h O-SO 115 ° 0 min -9,4 °C -2,5 °C 3,6 km/h
09.01.2024 19:10 -2,5 °C 58 % 0 cb 1024,0 hPa 0,0 mm 9,1 km/h NW 325 ° 0 min -9,6 °C -6,0 °C 9,1 km/h
09.01.2024 19:05 -2,4 °C 58 % 0 cb 1024,0 hPa 0,0 mm 6,1 km/h O 95 ° 0 min -9,5 °C -4,8 °C 6,1 km/h
09.01.2024 19:00 -2,4 °C 58 % 0 cb 1024,0 hPa 0,0 mm 17,6 km/h O-SO 120 ° 0 min -9,5 °C -7,9 °C 17,6 km/h
09.01.2024 18:55 -2,4 °C 58 % 0 cb 1024,0 hPa 0,0 mm 7,9 km/h O-SO 110 ° 0 min -9,5 °C -5,5 °C 7,9 km/h
09.01.2024 18:50 -2,4 °C 58 % 0 cb 1024,0 hPa 0,0 mm 13,3 km/h SO 135 ° 0 min -9,5 °C -7,0 °C 13,3 km/h
09.01.2024 18:45 -2,5 °C 59 % 0 cb 1024,0 hPa 0,0 mm 10,3 km/h O-SO 120 ° 0 min -9,4 °C -6,4 °C 10,3 km/h
09.01.2024 18:40 -2,5 °C 58 % 0 cb 1024,0 hPa 0,0 mm 7,9 km/h O-SO 115 ° 0 min -9,6 °C -5,6 °C 7,9 km/h
09.01.2024 18:35 -2,5 °C 58 % 0 cb 1024,0 hPa 0,0 mm 7,3 km/h S-SO 155 ° 0 min -9,6 °C -5,4 °C 7,3 km/h
09.01.2024 18:30 -2,4 °C 58 % 0 cb 1024,0 hPa 0,0 mm 9,1 km/h SO 125 ° 0 min -9,5 °C -5,9 °C 9,1 km/h
09.01.2024 18:25 -2,3 °C 58 % 0 cb 1024,0 hPa 0,0 mm 6,7 km/h S-SO 150 ° 0 min -9,4 °C -5,0 °C 6,7 km/h
09.01.2024 18:20 -2,3 °C 58 % 0 cb 1024,0 hPa 0,0 mm 9,1 km/h O 100 ° 0 min -9,4 °C -5,8 °C 9,1 km/h
09.01.2024 18:15 -2,3 °C 58 % 0 cb 1024,0 hPa 0,0 mm 9,7 km/h O-SO 110 ° 0 min -9,4 °C -6,0 °C 9,7 km/h
09.01.2024 18:10 -2,2 °C 58 % 0 cb 1024,0 hPa 0,0 mm 19,4 km/h S-SO 150 ° 0 min -9,3 °C -7,9 °C 19,4 km/h
09.01.2024 18:05 -2,2 °C 57 % 0 cb 1024,0 hPa 0,0 mm 5,4 km/h O-SO 105 ° 0 min -9,5 °C -4,3 °C 5,4 km/h
09.01.2024 18:00 -2,2 °C 58 % 0 cb 1024,0 hPa 0,0 mm 7,9 km/h O-SO 110 ° 0 min -9,3 °C -5,3 °C 7,9 km/h
09.01.2024 17:55 -2,2 °C 58 % 0 cb 1024,0 hPa 0,0 mm 7,9 km/h S-SO 150 ° 0 min -9,3 °C -5,3 °C 7,9 km/h
09.01.2024 17:50 -2,2 °C 57 % 0 cb 1024,0 hPa 0,0 mm 6,1 km/h SO 135 ° 0 min -9,5 °C -4,6 °C 6,1 km/h
09.01.2024 17:45 -2,2 °C 57 % 0 cb 1024,0 hPa 0,0 mm 4,8 km/h S 175 ° 0 min -9,5 °C -4,0 °C 4,8 km/h
09.01.2024 17:40 -2,1 °C 57 % 0 cb 1024,0 hPa 0,0 mm 3,0 km/h N-NW 330 ° 0 min -9,4 °C -2,1 °C 3,0 km/h
09.01.2024 17:35 -2,0 °C 57 % 0 cb 1024,0 hPa 0,0 mm 4,2 km/h N-NW 335 ° 0 min -9,4 °C -2,0 °C 4,2 km/h
09.01.2024 17:30 -1,9 °C 56 % 0 cb 1024,0 hPa 0,0 mm 7,9 km/h S 175 ° 0 min -9,5 °C -4,9 °C 7,9 km/h
09.01.2024 17:25 -1,9 °C 56 % 0 cb 1024,0 hPa 0,0 mm 7,3 km/h W 280 ° 0 min -9,5 °C -4,7 °C 7,3 km/h
09.01.2024 17:20 -1,9 °C 57 % 0 cb 1024,0 hPa 0,0 mm 8,5 km/h O-SO 120 ° 0 min -9,3 °C -5,1 °C 8,5 km/h
09.01.2024 17:15 -1,8 °C 56 % 0 cb 1024,0 hPa 0,0 mm 4,8 km/h SO 135 ° 0 min -9,4 °C -3,5 °C 4,8 km/h
09.01.2024 17:10 -1,7 °C 56 % 0 cb 1024,0 hPa 0,0 mm 4,2 km/h W-SW 245 ° 0 min -9,3 °C -1,7 °C 4,2 km/h
09.01.2024 17:05 -1,6 °C 56 % 0 cb 1024,0 hPa 0,0 mm 8,5 km/h O 100 ° 0 min -9,2 °C -4,8 °C 8,5 km/h
09.01.2024 17:00 -1,6 °C 55 % 0 cb 1024,0 hPa 0,0 mm 9,1 km/h SO 145 ° 0 min -9,4 °C -5,0 °C 9,1 km/h
09.01.2024 16:55 -1,6 °C 55 % 0 cb 1024,0 hPa 0,0 mm 4,8 km/h W 275 ° 0 min -9,4 °C -3,3 °C 4,8 km/h
09.01.2024 16:50 -1,5 °C 55 % 0 cb 1024,0 hPa 0,0 mm 4,2 km/h O-NO 65 ° 0 min -9,3 °C -1,5 °C 4,2 km/h
09.01.2024 16:45 -1,4 °C 55 % 0 cb 1024,0 hPa 0,0 mm 8,5 km/h W-SW 240 ° 0 min -9,2 °C -4,5 °C 8,5 km/h
09.01.2024 16:40 -1,3 °C 54 % 0 cb 1024,0 hPa 0,0 mm 9,1 km/h W-SW 240 ° 0 min -9,4 °C -4,6 °C 9,1 km/h
09.01.2024 16:35 -1,2 °C 54 % 0 cb 1024,0 hPa 0,0 mm 6,7 km/h SO 145 ° 0 min -9,3 °C -3,7 °C 6,7 km/h
09.01.2024 16:30 -1,1 °C 54 % 0 cb 1024,0 hPa 0,0 mm 9,1 km/h W-NW 290 ° 0 min -9,2 °C -4,4 °C 9,1 km/h
09.01.2024 16:25 -1,0 °C 53 % 0 cb 1024,0 hPa 0,0 mm 10,9 km/h O 90 ° 0 min -9,3 °C -4,7 °C 10,9 km/h
09.01.2024 16:20 -1,0 °C 54 % 0 cb 1024,0 hPa 0,0 mm 9,7 km/h O-SO 115 ° 0 min -9,1 °C -4,4 °C 9,7 km/h
09.01.2024 16:15 -1,0 °C 54 % 0 cb 1024,0 hPa 0,0 mm 7,9 km/h SO 125 ° 0 min -9,1 °C -3,9 °C 7,9 km/h
09.01.2024 16:10 -0,9 °C 53 % 0 cb 1024,0 hPa 0,0 mm 10,9 km/h NW 315 ° 0 min -9,2 °C -4,6 °C 10,9 km/h
09.01.2024 16:05 -0,8 °C 54 % 0 cb 1024,0 hPa 0,0 mm 12,1 km/h SO 125 ° 0 min -8,9 °C -4,8 °C 12,1 km/h
09.01.2024 16:00 -0,8 °C 53 % 0 cb 1024,0 hPa 0,0 mm 11,5 km/h NW 310 ° 0 min -9,2 °C -4,7 °C 11,5 km/h
09.01.2024 15:55 -0,7 °C 53 % 0 cb 1024,0 hPa 0,0 mm 11,5 km/h O 80 ° 0 min -9,1 °C -4,5 °C 11,5 km/h
09.01.2024 15:50 -0,7 °C 53 % 0 cb 1024,0 hPa 0,0 mm 10,3 km/h O 80 ° 0 min -9,1 °C -4,2 °C 10,3 km/h
09.01.2024 15:45 -0,6 °C 53 % 0 cb 1024,0 hPa 0,0 mm 20,0 km/h S-SW 195 ° 0 min -9,0 °C -6,0 °C 20,0 km/h
09.01.2024 15:40 -0,6 °C 53 % 0 cb 1024,0 hPa 0,0 mm 4,8 km/h SW 220 ° 0 min -9,0 °C -2,2 °C 4,8 km/h
09.01.2024 15:35 -0,4 °C 53 % 0 cb 1024,0 hPa 0,0 mm 6,7 km/h O-SO 120 ° 0 min -8,8 °C -2,8 °C 6,7 km/h
09.01.2024 15:30 -0,4 °C 52 % 0 cb 1024,0 hPa 0,0 mm 12,1 km/h O-SO 120 ° 0 min -9,0 °C -4,3 °C 12,1 km/h
09.01.2024 15:25 -0,3 °C 52 % 0 cb 1024,0 hPa 0,0 mm 9,7 km/h SO 145 ° 0 min -8,9 °C -3,6 °C 9,7 km/h
09.01.2024 15:20 0,0 °C 51 % 0 cb 1024,0 hPa 0,0 mm 12,1 km/h SO 145 ° 0 min -8,9 °C -3,8 °C 12,1 km/h
09.01.2024 15:15 0,3 °C 52 % 3 cb 1024,0 hPa 0,0 mm 13,3 km/h SO 140 ° 3 min -8,4 °C -3,7 °C 13,3 km/h
09.01.2024 15:10 0,5 °C 51 % 3 cb 1024,0 hPa 0,0 mm 7,9 km/h SO 145 ° 3 min -8,4 °C -2,1 °C 7,9 km/h
09.01.2024 15:05 0,4 °C 52 % 7 cb 1024,0 hPa 0,0 mm 6,1 km/h W-SW 245 ° 7 min -8,3 °C -1,6 °C 6,1 km/h
09.01.2024 15:00 0,2 °C 53 % 5 cb 1024,0 hPa 0,0 mm 9,7 km/h O-NO 75 ° 5 min -8,2 °C -3,0 °C 9,7 km/h
09.01.2024 14:55 0,2 °C 53 % 2 cb 1024,0 hPa 0,0 mm 9,7 km/h O 95 ° 2 min -8,2 °C -3,0 °C 9,7 km/h
09.01.2024 14:50 0,2 °C 53 % 5 cb 1024,0 hPa 0,0 mm 7,9 km/h O-SO 105 ° 5 min -8,2 °C -2,5 °C 7,9 km/h
09.01.2024 14:45 0,1 °C 53 % 5 cb 1024,0 hPa 0,0 mm 12,1 km/h O 100 ° 5 min -8,3 °C -3,7 °C 12,1 km/h
09.01.2024 14:40 0,0 °C 54 % 5 cb 1024,0 hPa 0,0 mm 8,5 km/h S-SO 150 ° 5 min -8,2 °C -2,9 °C 8,5 km/h
09.01.2024 14:35 -0,4 °C 56 % 5 cb 1024,0 hPa 0,0 mm 6,1 km/h S 175 ° 5 min -8,1 °C -2,5 °C 6,1 km/h
09.01.2024 14:30 -0,8 °C 56 % 0 cb 1024,0 hPa 0,0 mm 6,7 km/h SW 220 ° 0 min -8,5 °C -3,2 °C 6,7 km/h
09.01.2024 14:25 -0,8 °C 57 % 0 cb 1024,0 hPa 0,0 mm 9,7 km/h N-NW 330 ° 0 min -8,2 °C -4,2 °C 9,7 km/h
09.01.2024 14:20 -1,0 °C 57 % 0 cb 1024,0 hPa 0,0 mm 12,7 km/h SO 135 ° 0 min -8,4 °C -5,2 °C 12,7 km/h
09.01.2024 14:15 -1,0 °C 57 % 0 cb 1024,0 hPa 0,0 mm 12,1 km/h N-NW 345 ° 0 min -8,4 °C -5,0 °C 12,1 km/h
09.01.2024 14:10 -1,2 °C 58 % 0 cb 1025,0 hPa 0,0 mm 10,9 km/h S-SW 210 ° 0 min -8,4 °C -5,0 °C 10,9 km/h
09.01.2024 14:05 -1,2 °C 58 % 0 cb 1025,0 hPa 0,0 mm 18,8 km/h SO 140 ° 0 min -8,4 °C -6,6 °C 18,8 km/h
09.01.2024 14:00 -1,3 °C 59 % 0 cb 1025,0 hPa 0,0 mm 10,9 km/h W-SW 255 ° 0 min -8,3 °C -5,1 °C 10,9 km/h
09.01.2024 13:55 -1,3 °C 59 % 0 cb 1024,0 hPa 0,0 mm 11,5 km/h NO 55 ° 0 min -8,3 °C -5,3 °C 11,5 km/h
09.01.2024 13:50 -1,4 °C 60 % 0 cb 1024,0 hPa 0,0 mm 13,3 km/h SW 235 ° 0 min -8,1 °C -5,8 °C 13,3 km/h
09.01.2024 13:45 -1,4 °C 59 % 0 cb 1024,0 hPa 0,0 mm 8,5 km/h O-NO 75 ° 0 min -8,4 °C -4,5 °C 8,5 km/h
09.01.2024 13:40 -1,5 °C 60 % 0 cb 1024,0 hPa 0,0 mm 6,7 km/h O-NO 75 ° 0 min -8,2 °C -4,0 °C 6,7 km/h
09.01.2024 13:35 -1,5 °C 60 % 0 cb 1024,0 hPa 0,0 mm 10,3 km/h S-SW 195 ° 0 min -8,2 °C -5,2 °C 10,3 km/h
09.01.2024 13:30 -1,6 °C 60 % 0 cb 1024,0 hPa 0,0 mm 8,5 km/h S 180 ° 0 min -8,3 °C -4,8 °C 8,5 km/h
09.01.2024 13:25 -1,6 °C 60 % 0 cb 1025,0 hPa 0,0 mm 10,9 km/h O 100 ° 0 min -8,3 °C -5,5 °C 10,9 km/h
09.01.2024 13:23 -1,6 °C 61 % 0 cb 1031,1 hPa 0,0 mm 13,3 km/h O-SO 120 ° 0 min -8,1 °C -6,0 °C 13,3 km/h
09.01.2024 13:22 -1,6 °C 61 % 0 cb 1031,1 hPa 0,0 mm 13,3 km/h O-SO 120 ° 0 min -8,1 °C -6,0 °C 13,3 km/h
09.01.2024 13:17 -1,7 °C 61 % 0 cb 1031,1 hPa 0,0 mm 10,9 km/h S-SO 160 ° 0 min -8,2 °C -5,6 °C 10,9 km/h
09.01.2024 13:12 -1,8 °C 61 % 0 cb 1031,1 hPa 0,0 mm 6,7 km/h O-SO 115 ° 0 min -8,3 °C -4,4 °C 6,7 km/h
09.01.2024 13:06 -1,8 °C 61 % 0 cb 1031,1 hPa 0,0 mm 13,9 km/h S-SO 165 ° 0 min -8,3 °C -6,4 °C 13,9 km/h
09.01.2024 13:01 -1,8 °C 61 % 0 cb 1031,1 hPa 0,0 mm 16,3 km/h NO 35 ° 0 min -8,3 °C -6,9 °C 16,3 km/h
09.01.2024 12:56 -1,8 °C 62 % 0 cb 1031,1 hPa 0,0 mm 7,3 km/h W-SW 255 ° 0 min -8,1 °C -4,6 °C 7,3 km/h
09.01.2024 12:51 -1,9 °C 62 % 0 cb 1031,1 hPa 0,0 mm 7,3 km/h S-SW 200 ° 0 min -8,2 °C -4,7 °C 7,3 km/h
09.01.2024 12:46 -1,9 °C 63 % 0 cb 1031,1 hPa 0,0 mm 9,1 km/h W-NW 285 ° 0 min -8,0 °C -5,3 °C 9,1 km/h
09.01.2024 12:41 -2,0 °C 63 % 0 cb 1031,1 hPa 0,0 mm 13,3 km/h O-SO 120 ° 0 min -8,1 °C -6,5 °C 13,3 km/h
09.01.2024 12:36 -1,9 °C 63 % 0 cb 1031,1 hPa 0,0 mm 4,8 km/h W-NW 300 ° 0 min -8,0 °C -3,6 °C 4,8 km/h
09.01.2024 12:31 -1,9 °C 63 % 0 cb 1031,1 hPa 0,0 mm 10,9 km/h S-SO 155 ° 0 min -8,0 °C -5,8 °C 10,9 km/h
09.01.2024 12:26 -1,9 °C 62 % 0 cb 1031,1 hPa 0,0 mm 5,4 km/h SO 130 ° 0 min -8,2 °C -3,9 °C 5,4 km/h
09.01.2024 12:21 -1,8 °C 62 % 0 cb 1031,1 hPa 0,0 mm 10,9 km/h W 275 ° 0 min -8,1 °C -5,7 °C 10,9 km/h
09.01.2024 12:16 -1,7 °C 62 % 0 cb 1031,1 hPa 0,0 mm 12,7 km/h SO 140 ° 0 min -8,0 °C -6,0 °C 12,7 km/h
09.01.2024 12:11 -1,3 °C 61 % 0 cb 1031,1 hPa 0,0 mm 11,5 km/h O-SO 115 ° 0 min -7,8 °C -5,3 °C 11,5 km/h
09.01.2024 12:06 -0,7 °C 60 % 2 cb 1032,1 hPa 0,0 mm 9,7 km/h O-SO 115 ° 2 min -7,5 °C -4,1 °C 9,7 km/h
09.01.2024 12:01 -0,6 °C 60 % 6 cb 1032,1 hPa 0,0 mm 7,3 km/h W-NW 295 ° 6 min -7,4 °C -3,2 °C 7,3 km/h
09.01.2024 11:56 -0,8 °C 60 % 4 cb 1032,1 hPa 0,0 mm 11,5 km/h N-NO 30 ° 4 min -7,6 °C -4,7 °C 11,5 km/h
09.01.2024 11:51 -0,5 °C 60 % 5 cb 1032,1 hPa 0,0 mm 7,3 km/h S-SO 160 ° 5 min -7,3 °C -3,1 °C 7,3 km/h
09.01.2024 11:46 -0,7 °C 61 % 6 cb 1032,1 hPa 0,0 mm 8,5 km/h W 280 ° 6 min -7,3 °C -3,7 °C 8,5 km/h
09.01.2024 11:41 -0,3 °C 61 % 5 cb 1032,1 hPa 0,0 mm 9,7 km/h O 80 ° 5 min -6,9 °C -3,6 °C 9,7 km/h
09.01.2024 11:36 -0,4 °C 62 % 5 cb 1032,1 hPa 0,0 mm 11,5 km/h S 180 ° 5 min -6,8 °C -4,2 °C 11,5 km/h
09.01.2024 11:31 -0,7 °C 62 % 5 cb 1032,1 hPa 0,0 mm 9,1 km/h N 0 ° 5 min -7,1 °C -3,9 °C 9,1 km/h
09.01.2024 11:26 -0,8 °C 63 % 5 cb 1032,1 hPa 0,0 mm 8,5 km/h SO 140 ° 5 min -6,9 °C -3,8 °C 8,5 km/h
09.01.2024 11:21 -1,3 °C 64 % 5 cb 1032,1 hPa 0,0 mm 8,5 km/h SO 145 ° 5 min -7,2 °C -4,4 °C 8,5 km/h
09.01.2024 11:16 -1,5 °C 64 % 6 cb 1032,1 hPa 0,0 mm 9,7 km/h O-SO 120 ° 6 min -7,4 °C -5,0 °C 9,7 km/h
09.01.2024 11:11 -1,6 °C 64 % 4 cb 1032,1 hPa 0,0 mm 11,5 km/h O-SO 115 ° 4 min -7,5 °C -5,6 °C 11,5 km/h
09.01.2024 11:06 -1,6 °C 64 % 6 cb 1032,1 hPa 0,0 mm 9,1 km/h O 95 ° 6 min -7,5 °C -5,0 °C 9,1 km/h
09.01.2024 11:01 -1,5 °C 65 % 4 cb 1032,1 hPa 0,0 mm 5,4 km/h SO 145 ° 4 min -7,2 °C -3,5 °C 5,4 km/h
09.01.2024 10:56 -1,9 °C 66 % 5 cb 1032,1 hPa 0,0 mm 10,9 km/h S-SW 205 ° 5 min -7,4 °C -5,8 °C 10,9 km/h
09.01.2024 10:51 -2,1 °C 66 % 5 cb 1032,1 hPa 0,0 mm 12,1 km/h N 350 ° 5 min -7,6 °C -6,4 °C 12,1 km/h
09.01.2024 10:46 -1,9 °C 67 % 5 cb 1032,1 hPa 0,0 mm 6,7 km/h SO 135 ° 5 min -7,2 °C -4,5 °C 6,7 km/h
09.01.2024 10:41 -2,3 °C 68 % 5 cb 1032,1 hPa 0,0 mm 6,1 km/h SO 125 ° 5 min -7,4 °C -4,7 °C 6,1 km/h
09.01.2024 10:36 -3,0 °C 70 % 5 cb 1032,1 hPa 0,0 mm 7,3 km/h W-SW 250 ° 5 min -7,7 °C -6,0 °C 7,3 km/h
09.01.2024 10:31 -3,5 °C 70 % 6 cb 1032,1 hPa 0,0 mm 15,7 km/h O-SO 120 ° 6 min -8,2 °C -8,9 °C 15,7 km/h
09.01.2024 10:26 -3,7 °C 72 % 4 cb 1032,1 hPa 0,0 mm 12,1 km/h S-SO 155 ° 4 min -8,0 °C -8,3 °C 12,1 km/h
09.01.2024 10:21 -4,1 °C 72 % 1 cb 1032,1 hPa 0,0 mm 6,1 km/h SO 145 ° 1 min -8,4 °C -6,8 °C 6,1 km/h
09.01.2024 10:16 -4,2 °C 72 % 0 cb 1032,1 hPa 0,0 mm 12,1 km/h N-NO 25 ° 0 min -8,5 °C -8,9 °C 12,1 km/h
09.01.2024 10:11 -4,1 °C 72 % 3 cb 1032,1 hPa 0,0 mm 12,7 km/h O-SO 105 ° 3 min -8,4 °C -8,9 °C 12,7 km/h
09.01.2024 10:06 -4,4 °C 73 % 4 cb 1033,2 hPa 0,0 mm 8,5 km/h S-SO 160 ° 4 min -8,5 °C -8,1 °C 8,5 km/h
09.01.2024 10:01 -4,5 °C 74 % 0 cb 1033,2 hPa 0,0 mm 18,8 km/h S 190 ° 0 min -8,4 °C -10,7 °C 18,8 km/h
_ Min-Zeit 05:40 15:20 09:40 07:40 - 08:05 - - - 05:25 10:01 08:05
Minimum _ -6,4 °C 51 % 0 cb 1021,0 hPa - 0,0 km/h - - - -10,3 °C -10,7 °C 0,0 km/h
_ Max-Zeit 15:10 08:35 15:05 10:06 09:40 15:45 - - 15:05 11:36 16:50 15:45
Maximum _ 0,5 °C 75 % 7 cb 1033,2 hPa 0,0 mm 20,0 km/h
S-SW
- - 7 min -6,8 °C -1,5 °C 20,0 km/h
S-SW
Durchschnitt _ -3,7 °C 67 % 0 cb 1025,2 hPa #0,0 mm 6,8 km/h O-SO - #0 min. -9,1 °C -5,9 °C 6,8 km/h
H.Kloepper